Семей

СКИДКИ НА СМАРТФОНЫ!

Карта отелей и гостиниц, располагающихся рядом с аэропортом Семей :

Семей Восточно Казахстанская область 50° 21' 6.48" N, 80° 14' 4.4988" E
Код аэродрома ИКАО
UASS
Код аэродрома RU
УАСС
Координаты
N50.35180° E080.23458°
Превышение над уровнем моря
213
Основная полоса
08L/26R
Курс магнитный
077/257
Длина основной ВПП
3100
Ширина основной ВПП
44
Покрытие основной ВПП
Твёрдое (железобетон)
Освещение ВПП
Постоянное
Тип: 
Аэродром
Класс аэродрома: 
Международный
Принадлежность: 
ГА
Статус: 
Действующий
Сайт: 
http://www.semeyairport.kz/
Страна: 
Казахстан
Регион: 
Восточно Казахстанская область
Дополнительная информация: 
Эксплуатант: АО «Семейавиа». Совместного базирования.
Погода: 

Авиационная погода в аэропорту Семей

Регион: 
Погода METAR: 
UASS 250300Z VRB01MPS CAVOK 15/M02 Q1015 NOSIG RMK QFE743/0990
Время наблюдения
2022-09-25T03:00:00Z
Температура C
15.0
Точка росы
-2.0
Направление ветра
0
Скорость ветра (узлы)
2
Метео видимость
6.21
Облачность
CAVOK
Нижняя граница облачности (футы)
Явления погоды
Условия полета
VFR
Аэропорт подробнее: 

Скидки на навигаторы!

Найти трансфер

С помощью этой формы Вы можете найти трансфер из аэропорта Семей в город, аэропорт или вокзал:

Погода в аэропортах:

Авиационная погода в Атырау

Регион: 
Погода METAR: 
UATG 250400Z 28006MPS 5000 BR SCT033CB 12/10 Q1013 NOSIG RMK QFE761/1015
Время наблюдения
2022-09-25T04:00:00Z
Температура C
12.0
Точка росы
10.0
Направление ветра
280
Скорость ветра (узлы)
12
Метео видимость
3.11
Облачность
SCT
Нижняя граница облачности (футы)
3300
Явления погоды
BR
Условия полета
MVFR
SCT – разбросанная отдельная облачность;
BR – дымка (видимость от 1 до 9 км);

Авиационная погода в Калуге (Грабцево)

Регион: 
Погода METAR: 
UUBC 250400Z 28005MPS 2300 -DZ OVC004 07/06 Q0999 R31/290150 NOSIG RMK QBB140 QFE732/0977
Время наблюдения
2022-09-25T04:00:00Z
Температура C
7.0
Точка росы
6.0
Направление ветра
280
Скорость ветра (узлы)
10
Метео видимость
1.43
Облачность
OVC
Нижняя граница облачности (футы)
400
Явления погоды
-DZ
Условия полета
LIFR
OVC – сплошная облачность;
-DZ – слабая морось;

Авиационная погода в Курске

Погода METAR: 
UUOK 250400Z 31006MPS 9999 -RA OVC030 07/06 Q1005 R30/290050 NOSIG RMK QFE735/0980
Время наблюдения
2022-09-25T04:00:00Z
Температура C
7.0
Точка росы
6.0
Направление ветра
310
Скорость ветра (узлы)
12
Метео видимость
6.21
Облачность
OVC
Нижняя граница облачности (футы)
3000
Явления погоды
-RA
Условия полета
MVFR
Аэропорт подробнее: 
OVC – сплошная облачность;
-RA - слабый дождь;

Авиационная погода в Раменское

Регион: 
Погода METAR: 
UUBW 250300Z 12004MPS 9999 -RA OVC004 06/06 Q0998 R30/210250 NOSIG
Время наблюдения
2022-09-25T03:00:00Z
Температура C
6.0
Точка росы
6.0
Направление ветра
120
Скорость ветра (узлы)
8
Метео видимость
6.21
Облачность
OVC
Нижняя граница облачности (футы)
400
Явления погоды
-RA
Условия полета
LIFR
Аэропорт подробнее: 
OVC – сплошная облачность;
-RA - слабый дождь;